sensor_id;sensor_type;location;lat;lon;timestamp;temperature;humidity
14248;DHT22;7208;49.826;6.004;2023-11-19T01:03:01;10.90;99.90
14248;DHT22;7208;49.826;6.004;2023-11-19T01:05:27;10.70;99.90
14248;DHT22;7208;49.826;6.004;2023-11-19T01:07:53;10.70;99.90
14248;DHT22;7208;49.826;6.004;2023-11-19T01:10:19;10.60;99.90
14248;DHT22;7208;49.826;6.004;2023-11-19T01:12:46;10.60;99.90
14248;DHT22;7208;49.826;6.004;2023-11-19T01:15:12;10.70;99.90
14248;DHT22;7208;49.826;6.004;2023-11-19T01:17:38;10.70;99.90
14248;DHT22;7208;49.826;6.004;2023-11-19T01:20:04;10.70;99.90
14248;DHT22;7208;49.826;6.004;2023-11-19T01:22:32;10.70;99.90
14248;DHT22;7208;49.826;6.004;2023-11-19T01:24:58;10.70;99.90
14248;DHT22;7208;49.826;6.004;2023-11-19T01:27:24;10.70;99.90
14248;DHT22;7208;49.826;6.004;2023-11-19T01:29:50;10.70;99.90
14248;DHT22;7208;49.826;6.004;2023-11-19T01:32:15;10.70;99.90
14248;DHT22;7208;49.826;6.004;2023-11-19T01:34:41;10.80;99.90
14248;DHT22;7208;49.826;6.004;2023-11-19T01:37:07;10.80;99.90
14248;DHT22;7208;49.826;6.004;2023-11-19T01:39:34;10.80;99.90
14248;DHT22;7208;49.826;6.004;2023-11-19T01:42:00;10.80;99.90
14248;DHT22;7208;49.826;6.004;2023-11-19T01:44:26;10.90;99.90
14248;DHT22;7208;49.826;6.004;2023-11-19T01:46:52;10.90;99.90
14248;DHT22;7208;49.826;6.004;2023-11-19T01:49:18;10.90;99.90
14248;DHT22;7208;49.826;6.004;2023-11-19T01:51:45;10.90;99.90
14248;DHT22;7208;49.826;6.004;2023-11-19T01:54:12;10.90;99.90
14248;DHT22;7208;49.826;6.004;2023-11-19T01:56:39;11.10;99.90
14248;DHT22;7208;49.826;6.004;2023-11-19T01:59:07;11.10;99.90
14248;DHT22;7208;49.826;6.004;2023-11-19T02:01:35;11.20;99.90
14248;DHT22;7208;49.826;6.004;2023-11-19T02:04:08;11.20;99.90
14248;DHT22;7208;49.826;6.004;2023-11-19T02:06:34;11.10;99.90
14248;DHT22;7208;49.826;6.004;2023-11-19T02:09:02;11.20;99.90
14248;DHT22;7208;49.826;6.004;2023-11-19T02:11:36;11.20;99.90
14248;DHT22;7208;49.826;6.004;2023-11-19T02:14:02;11.30;99.90
14248;DHT22;7208;49.826;6.004;2023-11-19T02:16:29;11.30;99.90
14248;DHT22;7208;49.826;6.004;2023-11-19T02:18:55;11.40;99.90
14248;DHT22;7208;49.826;6.004;2023-11-19T02:21:20;11.50;99.90
14248;DHT22;7208;49.826;6.004;2023-11-19T02:23:46;11.50;99.90
14248;DHT22;7208;49.826;6.004;2023-11-19T02:26:23;11.50;99.90
14248;DHT22;7208;49.826;6.004;2023-11-19T02:28:50;11.50;99.90
14248;DHT22;7208;49.826;6.004;2023-11-19T02:31:16;11.70;99.90
14248;DHT22;7208;49.826;6.004;2023-11-19T02:33:41;11.70;99.90
14248;DHT22;7208;49.826;6.004;2023-11-19T02:36:08;11.70;99.90
14248;DHT22;7208;49.826;6.004;2023-11-19T02:38:34;11.80;99.90
14248;DHT22;7208;49.826;6.004;2023-11-19T02:41:03;11.80;99.90
14248;DHT22;7208;49.826;6.004;2023-11-19T02:43:30;11.80;99.90
14248;DHT22;7208;49.826;6.004;2023-11-19T02:45:57;11.90;99.90
14248;DHT22;7208;49.826;6.004;2023-11-19T02:48:22;11.90;99.90
14248;DHT22;7208;49.826;6.004;2023-11-19T02:50:48;12.00;99.90
14248;DHT22;7208;49.826;6.004;2023-11-19T02:53:14;12.00;99.90
14248;DHT22;7208;49.826;6.004;2023-11-19T02:55:39;12.00;99.90
14248;DHT22;7208;49.826;6.004;2023-11-19T02:58:06;12.10;99.90
14248;DHT22;7208;49.826;6.004;2023-11-19T03:00:45;12.00;99.90
14248;DHT22;7208;49.826;6.004;2023-11-19T03:03:25;12.10;99.90
14248;DHT22;7208;49.826;6.004;2023-11-19T03:05:56;12.10;99.90
14248;DHT22;7208;49.826;6.004;2023-11-19T03:08:22;12.10;99.90
14248;DHT22;7208;49.826;6.004;2023-11-19T03:10:48;12.20;99.90
14248;DHT22;7208;49.826;6.004;2023-11-19T03:13:14;12.20;99.90
14248;DHT22;7208;49.826;6.004;2023-11-19T03:15:41;12.20;99.90
14248;DHT22;7208;49.826;6.004;2023-11-19T03:18:07;12.20;99.90
14248;DHT22;7208;49.826;6.004;2023-11-19T03:20:33;12.20;99.90
14248;DHT22;7208;49.826;6.004;2023-11-19T03:22:59;12.20;99.90
14248;DHT22;7208;49.826;6.004;2023-11-19T03:25:27;12.30;99.90
14248;DHT22;7208;49.826;6.004;2023-11-19T03:27:58;12.30;99.90
14248;DHT22;7208;49.826;6.004;2023-11-19T03:30:24;12.30;99.90
14248;DHT22;7208;49.826;6.004;2023-11-19T03:32:50;12.30;99.90
14248;DHT22;7208;49.826;6.004;2023-11-19T03:35:16;12.30;99.90
14248;DHT22;7208;49.826;6.004;2023-11-19T03:37:41;12.30;99.90
14248;DHT22;7208;49.826;6.004;2023-11-19T03:40:09;12.30;99.90
14248;DHT22;7208;49.826;6.004;2023-11-19T03:42:35;12.30;99.90
14248;DHT22;7208;49.826;6.004;2023-11-19T03:45:01;12.30;99.90
14248;DHT22;7208;49.826;6.004;2023-11-19T03:47:29;12.30;99.90
14248;DHT22;7208;49.826;6.004;2023-11-19T03:49:54;12.40;99.90
14248;DHT22;7208;49.826;6.004;2023-11-19T03:52:20;12.40;99.90
14248;DHT22;7208;49.826;6.004;2023-11-19T03:54:46;12.40;99.90
14248;DHT22;7208;49.826;6.004;2023-11-19T03:57:15;12.40;99.90
14248;DHT22;7208;49.826;6.004;2023-11-19T03:59:41;12.50;99.90
14248;DHT22;7208;49.826;6.004;2023-11-19T04:02:07;12.50;99.90
14248;DHT22;7208;49.826;6.004;2023-11-19T04:04:32;12.60;99.90
14248;DHT22;7208;49.826;6.004;2023-11-19T04:07:00;12.50;99.90
14248;DHT22;7208;49.826;6.004;2023-11-19T04:09:26;12.60;99.90
14248;DHT22;7208;49.826;6.004;2023-11-19T04:11:52;12.60;99.90
14248;DHT22;7208;49.826;6.004;2023-11-19T04:14:17;12.60;99.90
14248;DHT22;7208;49.826;6.004;2023-11-19T04:16:44;12.60;99.90
14248;DHT22;7208;49.826;6.004;2023-11-19T04:19:11;12.60;99.90
14248;DHT22;7208;49.826;6.004;2023-11-19T04:21:36;12.60;99.90
14248;DHT22;7208;49.826;6.004;2023-11-19T04:24:02;12.50;99.90
14248;DHT22;7208;49.826;6.004;2023-11-19T04:26:28;12.50;99.90
14248;DHT22;7208;49.826;6.004;2023-11-19T04:28:54;12.60;99.90
14248;DHT22;7208;49.826;6.004;2023-11-19T04:31:19;12.50;99.90
14248;DHT22;7208;49.826;6.004;2023-11-19T04:33:45;12.50;99.90
14248;DHT22;7208;49.826;6.004;2023-11-19T04:36:11;12.60;99.90
14248;DHT22;7208;49.826;6.004;2023-11-19T04:38:37;12.50;99.90
14248;DHT22;7208;49.826;6.004;2023-11-19T04:41:04;12.60;99.90
14248;DHT22;7208;49.826;6.004;2023-11-19T04:43:34;12.60;99.90
14248;DHT22;7208;49.826;6.004;2023-11-19T04:46:00;12.60;99.90
14248;DHT22;7208;49.826;6.004;2023-11-19T04:48:25;12.60;99.90
14248;DHT22;7208;49.826;6.004;2023-11-19T04:50:51;12.70;99.90
14248;DHT22;7208;49.826;6.004;2023-11-19T04:53:18;12.60;99.90
14248;DHT22;7208;49.826;6.004;2023-11-19T04:55:43;12.50;99.90
14248;DHT22;7208;49.826;6.004;2023-11-19T04:58:09;12.50;99.90
14248;DHT22;7208;49.826;6.004;2023-11-19T05:00:35;12.40;99.90
14248;DHT22;7208;49.826;6.004;2023-11-19T05:03:00;12.40;99.90
14248;DHT22;7208;49.826;6.004;2023-11-19T05:05:27;12.30;99.90
14248;DHT22;7208;49.826;6.004;2023-11-19T05:07:52;12.40;99.90
14248;DHT22;7208;49.826;6.004;2023-11-19T05:10:18;12.30;99.90
14248;DHT22;7208;49.826;6.004;2023-11-19T05:12:44;12.20;99.90
14248;DHT22;7208;49.826;6.004;2023-11-19T05:15:10;12.30;99.90
14248;DHT22;7208;49.826;6.004;2023-11-19T05:17:37;12.30;99.90
14248;DHT22;7208;49.826;6.004;2023-11-19T05:20:03;12.30;99.90
14248;DHT22;7208;49.826;6.004;2023-11-19T05:22:29;12.30;99.90
14248;DHT22;7208;49.826;6.004;2023-11-19T05:24:54;12.30;99.90
14248;DHT22;7208;49.826;6.004;2023-11-19T05:27:21;12.30;99.90
14248;DHT22;7208;49.826;6.004;2023-11-19T05:29:49;12.30;99.90
14248;DHT22;7208;49.826;6.004;2023-11-19T05:32:14;12.20;99.90
14248;DHT22;7208;49.826;6.004;2023-11-19T05:34:40;12.30;99.90
14248;DHT22;7208;49.826;6.004;2023-11-19T05:37:06;12.20;99.90
14248;DHT22;7208;49.826;6.004;2023-11-19T05:39:31;12.00;99.90
14248;DHT22;7208;49.826;6.004;2023-11-19T05:41:57;12.00;99.90
14248;DHT22;7208;49.826;6.004;2023-11-19T05:44:23;11.90;99.90
14248;DHT22;7208;49.826;6.004;2023-11-19T05:46:48;11.80;99.90
14248;DHT22;7208;49.826;6.004;2023-11-19T05:49:14;11.80;99.90
14248;DHT22;7208;49.826;6.004;2023-11-19T05:51:40;11.80;99.90
14248;DHT22;7208;49.826;6.004;2023-11-19T05:54:07;11.70;99.90
14248;DHT22;7208;49.826;6.004;2023-11-19T05:56:33;11.60;99.90
14248;DHT22;7208;49.826;6.004;2023-11-19T05:58:59;11.60;99.90
14248;DHT22;7208;49.826;6.004;2023-11-19T06:01:40;11.60;99.90
14248;DHT22;7208;49.826;6.004;2023-11-19T06:04:07;11.50;99.90
14248;DHT22;7208;49.826;6.004;2023-11-19T06:06:33;11.50;99.90
14248;DHT22;7208;49.826;6.004;2023-11-19T06:08:58;11.50;99.90
14248;DHT22;7208;49.826;6.004;2023-11-19T06:11:24;11.50;99.90
14248;DHT22;7208;49.826;6.004;2023-11-19T06:13:52;11.70;99.90
14248;DHT22;7208;49.826;6.004;2023-11-19T06:16:18;11.80;99.90
14248;DHT22;7208;49.826;6.004;2023-11-19T06:18:44;11.80;99.90
14248;DHT22;7208;49.826;6.004;2023-11-19T06:21:10;11.80;99.90
14248;DHT22;7208;49.826;6.004;2023-11-19T06:23:36;11.80;99.90
14248;DHT22;7208;49.826;6.004;2023-11-19T06:26:02;11.80;99.90
14248;DHT22;7208;49.826;6.004;2023-11-19T06:28:28;11.80;99.90
14248;DHT22;7208;49.826;6.004;2023-11-19T06:30:54;11.70;99.90
14248;DHT22;7208;49.826;6.004;2023-11-19T06:33:19;11.70;99.90
14248;DHT22;7208;49.826;6.004;2023-11-19T06:35:45;11.60;99.90
14248;DHT22;7208;49.826;6.004;2023-11-19T06:38:11;11.60;99.90
14248;DHT22;7208;49.826;6.004;2023-11-19T06:40:37;11.70;99.90
14248;DHT22;7208;49.826;6.004;2023-11-19T06:43:03;11.70;99.90
14248;DHT22;7208;49.826;6.004;2023-11-19T06:45:29;11.60;99.90
14248;DHT22;7208;49.826;6.004;2023-11-19T06:47:55;11.60;99.90
14248;DHT22;7208;49.826;6.004;2023-11-19T06:50:21;11.60;99.90
14248;DHT22;7208;49.826;6.004;2023-11-19T06:52:46;11.60;99.90
14248;DHT22;7208;49.826;6.004;2023-11-19T06:55:12;11.60;99.90
14248;DHT22;7208;49.826;6.004;2023-11-19T06:57:38;11.60;99.90
14248;DHT22;7208;49.826;6.004;2023-11-19T07:00:06;11.50;99.90
14248;DHT22;7208;49.826;6.004;2023-11-19T07:02:31;11.40;99.90
14248;DHT22;7208;49.826;6.004;2023-11-19T07:04:57;11.40;99.90
14248;DHT22;7208;49.826;6.004;2023-11-19T07:07:23;11.50;99.90
14248;DHT22;7208;49.826;6.004;2023-11-19T07:09:49;11.40;99.90
14248;DHT22;7208;49.826;6.004;2023-11-19T07:12:15;11.40;99.90
14248;DHT22;7208;49.826;6.004;2023-11-19T07:14:41;11.40;99.90
14248;DHT22;7208;49.826;6.004;2023-11-19T07:17:07;11.40;99.90
14248;DHT22;7208;49.826;6.004;2023-11-19T07:19:34;11.30;99.90
14248;DHT22;7208;49.826;6.004;2023-11-19T07:22:01;11.30;99.90
14248;DHT22;7208;49.826;6.004;2023-11-19T07:24:27;11.30;99.90
14248;DHT22;7208;49.826;6.004;2023-11-19T07:26:54;11.40;99.90
14248;DHT22;7208;49.826;6.004;2023-11-19T07:29:20;11.40;99.90
14248;DHT22;7208;49.826;6.004;2023-11-19T07:31:50;11.40;99.90
14248;DHT22;7208;49.826;6.004;2023-11-19T07:34:16;11.30;99.90
14248;DHT22;7208;49.826;6.004;2023-11-19T07:36:41;11.30;99.90
14248;DHT22;7208;49.826;6.004;2023-11-19T07:39:07;11.30;99.90
14248;DHT22;7208;49.826;6.004;2023-11-19T07:41:33;11.20;99.90
14248;DHT22;7208;49.826;6.004;2023-11-19T07:44:00;11.20;99.90
14248;DHT22;7208;49.826;6.004;2023-11-19T07:46:26;11.10;99.90
14248;DHT22;7208;49.826;6.004;2023-11-19T07:48:52;11.00;99.90
14248;DHT22;7208;49.826;6.004;2023-11-19T07:51:18;11.00;99.90
14248;DHT22;7208;49.826;6.004;2023-11-19T07:53:44;11.00;99.90
14248;DHT22;7208;49.826;6.004;2023-11-19T07:56:10;11.00;99.90
14248;DHT22;7208;49.826;6.004;2023-11-19T07:58:36;11.10;99.90
14248;DHT22;7208;49.826;6.004;2023-11-19T08:01:02;11.10;99.90
14248;DHT22;7208;49.826;6.004;2023-11-19T08:03:28;11.20;99.90
14248;DHT22;7208;49.826;6.004;2023-11-19T08:05:57;11.10;99.90
14248;DHT22;7208;49.826;6.004;2023-11-19T08:08:23;11.10;99.90
14248;DHT22;7208;49.826;6.004;2023-11-19T08:10:48;11.10;99.90
14248;DHT22;7208;49.826;6.004;2023-11-19T08:13:17;11.20;99.90
14248;DHT22;7208;49.826;6.004;2023-11-19T08:15:43;11.30;99.90
14248;DHT22;7208;49.826;6.004;2023-11-19T08:18:08;11.30;99.90
14248;DHT22;7208;49.826;6.004;2023-11-19T08:20:34;11.30;99.90
14248;DHT22;7208;49.826;6.004;2023-11-19T08:23:02;11.40;99.90
14248;DHT22;7208;49.826;6.004;2023-11-19T08:25:29;11.40;99.90
14248;DHT22;7208;49.826;6.004;2023-11-19T08:27:54;11.40;99.90
14248;DHT22;7208;49.826;6.004;2023-11-19T08:30:20;11.50;99.90
14248;DHT22;7208;49.826;6.004;2023-11-19T08:32:46;11.60;99.90
14248;DHT22;7208;49.826;6.004;2023-11-19T08:35:11;11.30;99.90
14248;DHT22;7208;49.826;6.004;2023-11-19T08:37:37;11.70;99.90
14248;DHT22;7208;49.826;6.004;2023-11-19T08:40:04;11.70;99.90
14248;DHT22;7208;49.826;6.004;2023-11-19T08:42:30;11.60;99.90
14248;DHT22;7208;49.826;6.004;2023-11-19T08:44:56;11.60;99.90
14248;DHT22;7208;49.826;6.004;2023-11-19T08:47:22;11.70;99.90
14248;DHT22;7208;49.826;6.004;2023-11-19T08:49:51;11.70;99.90
14248;DHT22;7208;49.826;6.004;2023-11-19T08:52:20;11.60;99.90
14248;DHT22;7208;49.826;6.004;2023-11-19T08:54:46;11.60;99.90
14248;DHT22;7208;49.826;6.004;2023-11-19T08:57:11;11.60;99.90
14248;DHT22;7208;49.826;6.004;2023-11-19T08:59:37;11.50;99.90
14248;DHT22;7208;49.826;6.004;2023-11-19T09:02:05;11.50;99.90
14248;DHT22;7208;49.826;6.004;2023-11-19T09:04:30;11.50;99.90
14248;DHT22;7208;49.826;6.004;2023-11-19T09:06:58;11.50;99.90
14248;DHT22;7208;49.826;6.004;2023-11-19T09:09:23;11.50;99.90
14248;DHT22;7208;49.826;6.004;2023-11-19T09:11:49;11.50;99.90
14248;DHT22;7208;49.826;6.004;2023-11-19T09:14:15;11.60;99.90
14248;DHT22;7208;49.826;6.004;2023-11-19T09:16:41;11.60;99.90
14248;DHT22;7208;49.826;6.004;2023-11-19T09:19:06;11.60;99.90
14248;DHT22;7208;49.826;6.004;2023-11-19T09:21:32;11.60;99.90
14248;DHT22;7208;49.826;6.004;2023-11-19T09:24:00;11.60;99.90
14248;DHT22;7208;49.826;6.004;2023-11-19T09:26:25;11.70;99.90
14248;DHT22;7208;49.826;6.004;2023-11-19T09:28:51;11.80;99.90
14248;DHT22;7208;49.826;6.004;2023-11-19T09:31:17;11.80;99.90
14248;DHT22;7208;49.826;6.004;2023-11-19T09:33:43;11.80;99.90
14248;DHT22;7208;49.826;6.004;2023-11-19T09:36:11;12.10;99.90
14248;DHT22;7208;49.826;6.004;2023-11-19T09:38:42;12.30;99.90
14248;DHT22;7208;49.826;6.004;2023-11-19T09:41:09;12.40;99.90
14248;DHT22;7208;49.826;6.004;2023-11-19T09:43:39;12.60;99.90
14248;DHT22;7208;49.826;6.004;2023-11-19T09:46:10;12.70;99.90
14248;DHT22;7208;49.826;6.004;2023-11-19T09:48:39;12.90;99.90
14248;DHT22;7208;49.826;6.004;2023-11-19T09:51:11;12.80;99.90
14248;DHT22;7208;49.826;6.004;2023-11-19T09:53:37;12.50;99.90
14248;DHT22;7208;49.826;6.004;2023-11-19T09:56:04;12.60;99.90
14248;DHT22;7208;49.826;6.004;2023-11-19T10:47:08;13.50;99.90
14248;DHT22;7208;49.826;6.004;2023-11-19T10:49:35;13.70;99.90
14248;DHT22;7208;49.826;6.004;2023-11-19T10:52:01;13.60;99.90
14248;DHT22;7208;49.826;6.004;2023-11-19T10:54:28;13.60;99.90
14248;DHT22;7208;49.826;6.004;2023-11-19T10:56:59;13.90;99.90
14248;DHT22;7208;49.826;6.004;2023-11-19T10:59:29;14.10;99.90
14248;DHT22;7208;49.826;6.004;2023-11-19T11:01:56;13.90;99.90
14248;DHT22;7208;49.826;6.004;2023-11-19T11:04:26;13.40;99.90
14248;DHT22;7208;49.826;6.004;2023-11-19T11:06:58;13.10;99.90
14248;DHT22;7208;49.826;6.004;2023-11-19T11:09:27;12.80;99.90
14248;DHT22;7208;49.826;6.004;2023-11-19T11:11:54;12.60;99.90
14248;DHT22;7208;49.826;6.004;2023-11-19T11:14:21;12.50;99.90
14248;DHT22;7208;49.826;6.004;2023-11-19T11:16:48;12.40;99.90
14248;DHT22;7208;49.826;6.004;2023-11-19T11:19:16;12.20;99.90
14248;DHT22;7208;49.826;6.004;2023-11-19T11:21:45;12.00;99.90
14248;DHT22;7208;49.826;6.004;2023-11-19T11:27:19;11.90;99.90
14248;DHT22;7208;49.826;6.004;2023-11-19T11:33:17;11.80;99.90
14248;DHT22;7208;49.826;6.004;2023-11-19T11:36:10;11.80;99.90
14248;DHT22;7208;49.826;6.004;2023-11-19T11:38:40;12.20;99.90
14248;DHT22;7208;49.826;6.004;2023-11-19T11:43:51;12.50;99.90
14248;DHT22;7208;49.826;6.004;2023-11-19T11:49:02;12.00;99.90
14248;DHT22;7208;49.826;6.004;2023-11-19T11:57:06;11.80;99.90
14248;DHT22;7208;49.826;6.004;2023-11-19T12:02:13;11.70;99.90
14248;DHT22;7208;49.826;6.004;2023-11-19T12:04:42;11.70;99.90
14248;DHT22;7208;49.826;6.004;2023-11-19T12:07:16;11.70;99.90
14248;DHT22;7208;49.826;6.004;2023-11-19T12:09:51;11.60;99.90
14248;DHT22;7208;49.826;6.004;2023-11-19T12:12:22;11.70;99.90
14248;DHT22;7208;49.826;6.004;2023-11-19T12:15:09;11.80;99.90
14248;DHT22;7208;49.826;6.004;2023-11-19T12:17:49;12.00;99.90
14248;DHT22;7208;49.826;6.004;2023-11-19T12:20:19;12.50;99.90
14248;DHT22;7208;49.826;6.004;2023-11-19T12:22:46;12.50;99.90
14248;DHT22;7208;49.826;6.004;2023-11-19T12:25:13;13.00;99.90
14248;DHT22;7208;49.826;6.004;2023-11-19T12:27:43;12.30;99.90
14248;DHT22;7208;49.826;6.004;2023-11-19T12:30:09;12.80;99.90
14248;DHT22;7208;49.826;6.004;2023-11-19T12:32:41;12.60;99.90
14248;DHT22;7208;49.826;6.004;2023-11-19T12:35:08;12.60;99.90
14248;DHT22;7208;49.826;6.004;2023-11-19T12:37:47;12.40;99.90
14248;DHT22;7208;49.826;6.004;2023-11-19T12:40:18;12.20;99.90
14248;DHT22;7208;49.826;6.004;2023-11-19T12:42:54;12.20;99.90
14248;DHT22;7208;49.826;6.004;2023-11-19T12:45:20;12.20;99.90
14248;DHT22;7208;49.826;6.004;2023-11-19T12:47:47;12.50;99.90
14248;DHT22;7208;49.826;6.004;2023-11-19T12:50:15;13.00;99.90
14248;DHT22;7208;49.826;6.004;2023-11-19T12:52:43;13.30;99.90
14248;DHT22;7208;49.826;6.004;2023-11-19T12:55:32;13.60;99.90
14248;DHT22;7208;49.826;6.004;2023-11-19T12:57:58;13.40;99.90
14248;DHT22;7208;49.826;6.004;2023-11-19T13:00:25;13.40;99.90
14248;DHT22;7208;49.826;6.004;2023-11-19T13:02:56;13.50;99.90
14248;DHT22;7208;49.826;6.004;2023-11-19T13:08:04;13.50;99.90
14248;DHT22;7208;49.826;6.004;2023-11-19T13:10:31;13.40;99.90
14248;DHT22;7208;49.826;6.004;2023-11-19T13:13:07;13.40;99.90
14248;DHT22;7208;49.826;6.004;2023-11-19T13:15:35;13.40;99.90
14248;DHT22;7208;49.826;6.004;2023-11-19T13:18:02;13.30;99.90
14248;DHT22;7208;49.826;6.004;2023-11-19T13:20:28;13.30;99.90
14248;DHT22;7208;49.826;6.004;2023-11-19T13:23:02;13.40;99.90
14248;DHT22;7208;49.826;6.004;2023-11-19T13:25:28;13.30;99.90
14248;DHT22;7208;49.826;6.004;2023-11-19T13:27:55;13.20;99.90
14248;DHT22;7208;49.826;6.004;2023-11-19T13:30:22;12.90;99.90
14248;DHT22;7208;49.826;6.004;2023-11-19T13:32:48;12.70;99.90
14248;DHT22;7208;49.826;6.004;2023-11-19T13:35:14;12.60;99.90
14248;DHT22;7208;49.826;6.004;2023-11-19T13:37:40;12.60;99.90
14248;DHT22;7208;49.826;6.004;2023-11-19T13:40:10;12.60;99.90
14248;DHT22;7208;49.826;6.004;2023-11-19T13:42:39;12.40;99.90
14248;DHT22;7208;49.826;6.004;2023-11-19T13:45:11;12.40;99.90
14248;DHT22;7208;49.826;6.004;2023-11-19T13:47:44;12.10;99.90
14248;DHT22;7208;49.826;6.004;2023-11-19T13:50:14;12.10;99.90
14248;DHT22;7208;49.826;6.004;2023-11-19T13:52:42;12.00;99.90
14248;DHT22;7208;49.826;6.004;2023-11-19T13:55:11;12.10;99.90
14248;DHT22;7208;49.826;6.004;2023-11-19T13:57:37;12.30;99.90
14248;DHT22;7208;49.826;6.004;2023-11-19T14:00:04;12.20;99.90
14248;DHT22;7208;49.826;6.004;2023-11-19T14:02:39;12.20;99.90
14248;DHT22;7208;49.826;6.004;2023-11-19T14:05:05;12.30;99.90
14248;DHT22;7208;49.826;6.004;2023-11-19T14:07:31;12.40;99.90
14248;DHT22;7208;49.826;6.004;2023-11-19T14:09:57;12.40;99.90
14248;DHT22;7208;49.826;6.004;2023-11-19T14:12:22;12.30;99.90
14248;DHT22;7208;49.826;6.004;2023-11-19T14:14:48;12.40;99.90
14248;DHT22;7208;49.826;6.004;2023-11-19T14:17:13;12.50;99.90
14248;DHT22;7208;49.826;6.004;2023-11-19T14:19:41;12.50;99.90
14248;DHT22;7208;49.826;6.004;2023-11-19T14:22:07;12.30;99.90
14248;DHT22;7208;49.826;6.004;2023-11-19T14:24:34;12.30;99.90
14248;DHT22;7208;49.826;6.004;2023-11-19T14:27:00;12.30;99.90
14248;DHT22;7208;49.826;6.004;2023-11-19T14:29:26;12.20;99.90
14248;DHT22;7208;49.826;6.004;2023-11-19T14:31:52;12.00;99.90
14248;DHT22;7208;49.826;6.004;2023-11-19T14:34:21;11.80;99.90
14248;DHT22;7208;49.826;6.004;2023-11-19T14:36:47;11.70;99.90
14248;DHT22;7208;49.826;6.004;2023-11-19T14:39:14;11.70;99.90
14248;DHT22;7208;49.826;6.004;2023-11-19T14:41:39;11.70;99.90
14248;DHT22;7208;49.826;6.004;2023-11-19T14:44:05;11.60;99.90
14248;DHT22;7208;49.826;6.004;2023-11-19T14:46:31;11.50;99.90
14248;DHT22;7208;49.826;6.004;2023-11-19T14:48:57;11.40;99.90
14248;DHT22;7208;49.826;6.004;2023-11-19T14:51:22;11.40;99.90
14248;DHT22;7208;49.826;6.004;2023-11-19T14:53:48;11.30;99.90
14248;DHT22;7208;49.826;6.004;2023-11-19T14:56:13;11.20;99.90
14248;DHT22;7208;49.826;6.004;2023-11-19T14:58:39;11.10;99.90
14248;DHT22;7208;49.826;6.004;2023-11-19T15:01:06;11.00;99.90
14248;DHT22;7208;49.826;6.004;2023-11-19T15:03:32;11.00;99.90
14248;DHT22;7208;49.826;6.004;2023-11-19T15:05:58;10.90;99.90
14248;DHT22;7208;49.826;6.004;2023-11-19T15:08:24;10.90;99.90
14248;DHT22;7208;49.826;6.004;2023-11-19T15:10:50;10.90;99.90
14248;DHT22;7208;49.826;6.004;2023-11-19T15:13:16;10.90;99.90
14248;DHT22;7208;49.826;6.004;2023-11-19T15:15:41;10.90;99.90
14248;DHT22;7208;49.826;6.004;2023-11-19T15:18:07;10.90;99.90
14248;DHT22;7208;49.826;6.004;2023-11-19T15:20:35;10.90;99.90
14248;DHT22;7208;49.826;6.004;2023-11-19T15:23:01;10.90;99.90
14248;DHT22;7208;49.826;6.004;2023-11-19T15:25:27;10.90;99.90
14248;DHT22;7208;49.826;6.004;2023-11-19T15:27:53;10.80;99.90
14248;DHT22;7208;49.826;6.004;2023-11-19T15:30:19;10.70;99.90
14248;DHT22;7208;49.826;6.004;2023-11-19T15:32:45;10.60;99.90
14248;DHT22;7208;49.826;6.004;2023-11-19T15:35:12;10.60;99.90
14248;DHT22;7208;49.826;6.004;2023-11-19T15:37:37;10.60;99.90
14248;DHT22;7208;49.826;6.004;2023-11-19T15:40:06;10.50;99.90
14248;DHT22;7208;49.826;6.004;2023-11-19T15:42:34;10.40;99.90
14248;DHT22;7208;49.826;6.004;2023-11-19T15:44:59;10.30;99.90
14248;DHT22;7208;49.826;6.004;2023-11-19T15:47:25;10.20;99.90
14248;DHT22;7208;49.826;6.004;2023-11-19T15:49:51;10.20;99.90
14248;DHT22;7208;49.826;6.004;2023-11-19T15:52:16;10.20;99.90
14248;DHT22;7208;49.826;6.004;2023-11-19T15:54:42;10.20;99.90
14248;DHT22;7208;49.826;6.004;2023-11-19T15:57:07;10.10;99.90
14248;DHT22;7208;49.826;6.004;2023-11-19T15:59:33;10.10;99.90
14248;DHT22;7208;49.826;6.004;2023-11-19T16:01:59;10.00;99.90
14248;DHT22;7208;49.826;6.004;2023-11-19T16:04:25;10.00;99.90
14248;DHT22;7208;49.826;6.004;2023-11-19T16:06:50;10.00;99.90
14248;DHT22;7208;49.826;6.004;2023-11-19T16:09:16;10.10;99.90
14248;DHT22;7208;49.826;6.004;2023-11-19T16:11:48;10.00;99.90
14248;DHT22;7208;49.826;6.004;2023-11-19T16:14:13;10.00;99.90
14248;DHT22;7208;49.826;6.004;2023-11-19T16:16:40;10.00;99.90
14248;DHT22;7208;49.826;6.004;2023-11-19T16:19:06;10.00;99.90
14248;DHT22;7208;49.826;6.004;2023-11-19T16:21:33;10.00;99.90
14248;DHT22;7208;49.826;6.004;2023-11-19T16:24:00;10.00;99.90
14248;DHT22;7208;49.826;6.004;2023-11-19T16:26:28;9.90;99.90
14248;DHT22;7208;49.826;6.004;2023-11-19T16:28:54;10.00;99.90
14248;DHT22;7208;49.826;6.004;2023-11-19T16:31:20;10.00;99.90
14248;DHT22;7208;49.826;6.004;2023-11-19T16:33:46;10.00;99.90
14248;DHT22;7208;49.826;6.004;2023-11-19T16:36:12;9.90;99.90
14248;DHT22;7208;49.826;6.004;2023-11-19T16:38:41;9.90;99.90
14248;DHT22;7208;49.826;6.004;2023-11-19T16:41:07;9.90;99.90
14248;DHT22;7208;49.826;6.004;2023-11-19T16:43:33;9.90;99.90
14248;DHT22;7208;49.826;6.004;2023-11-19T16:45:59;10.00;99.90
14248;DHT22;7208;49.826;6.004;2023-11-19T16:48:24;10.00;99.90
14248;DHT22;7208;49.826;6.004;2023-11-19T16:50:50;10.10;99.90
14248;DHT22;7208;49.826;6.004;2023-11-19T16:53:16;10.10;99.90
14248;DHT22;7208;49.826;6.004;2023-11-19T16:55:42;10.10;99.90
14248;DHT22;7208;49.826;6.004;2023-11-19T16:58:08;10.10;99.90
14248;DHT22;7208;49.826;6.004;2023-11-19T17:00:35;10.10;99.90
14248;DHT22;7208;49.826;6.004;2023-11-19T17:03:04;10.10;99.90
14248;DHT22;7208;49.826;6.004;2023-11-19T17:05:31;10.10;99.90
14248;DHT22;7208;49.826;6.004;2023-11-19T17:07:59;10.10;99.90
14248;DHT22;7208;49.826;6.004;2023-11-19T17:10:25;10.10;99.90
14248;DHT22;7208;49.826;6.004;2023-11-19T17:12:51;10.10;99.90
14248;DHT22;7208;49.826;6.004;2023-11-19T17:15:17;10.10;99.90
14248;DHT22;7208;49.826;6.004;2023-11-19T17:17:43;10.20;99.90
14248;DHT22;7208;49.826;6.004;2023-11-19T17:20:09;10.10;99.90
14248;DHT22;7208;49.826;6.004;2023-11-19T17:22:37;10.10;99.90
14248;DHT22;7208;49.826;6.004;2023-11-19T17:25:04;10.10;99.90
14248;DHT22;7208;49.826;6.004;2023-11-19T17:27:31;10.10;99.90
14248;DHT22;7208;49.826;6.004;2023-11-19T17:29:58;10.00;99.90
14248;DHT22;7208;49.826;6.004;2023-11-19T17:32:24;10.00;99.90
14248;DHT22;7208;49.826;6.004;2023-11-19T17:34:50;10.10;99.90
14248;DHT22;7208;49.826;6.004;2023-11-19T17:37:16;10.10;99.90
14248;DHT22;7208;49.826;6.004;2023-11-19T17:39:45;10.10;99.90
14248;DHT22;7208;49.826;6.004;2023-11-19T17:42:11;10.20;99.90
14248;DHT22;7208;49.826;6.004;2023-11-19T17:44:37;10.20;99.90
14248;DHT22;7208;49.826;6.004;2023-11-19T17:47:03;10.20;99.90
14248;DHT22;7208;49.826;6.004;2023-11-19T17:49:29;10.30;99.90
14248;DHT22;7208;49.826;6.004;2023-11-19T17:51:54;10.20;99.90
14248;DHT22;7208;49.826;6.004;2023-11-19T17:54:20;10.20;99.90
14248;DHT22;7208;49.826;6.004;2023-11-19T17:56:46;10.20;99.90
14248;DHT22;7208;49.826;6.004;2023-11-19T17:59:12;10.20;99.90